Lakeview, Texas
Current Conditions -  °F | °C
As of 1:53 PM on Saturday 20 Dec 2014 (Local Time) from KCDS Reporting Station
Few Clouds Few Clouds  
Wind Chill: 52°   Ceiling: Unl
Heat Index: 52°   Visibility: 10mi
Dew Point: 38°   Wind: 6mph
Humidity: 59%   Direction: 190°S
Pressure: 30.1"   Gusts: NA
Location:  34.67°N, 100.7°W
Report Text: KCDS 201953Z AUTO 19005KT 10SM FEW028 11/03 A3010 RMK AO2 SLP191 T01110033
Loading
Personal Weather Stations






























Interactive Weather Map New forecast layout! Learn more

10-Day Weather Forecast

Advertisements
Track Severe Weather on mobile